sensor_id;sensor_type;location;lat;lon;timestamp;temperature;humidity
12370;DHT22;6249;52.128;9.986;2023-05-29T00:00:11;15.50;99.90
12370;DHT22;6249;52.128;9.986;2023-05-29T00:10:13;15.40;99.90
12370;DHT22;6249;52.128;9.986;2023-05-29T00:20:14;15.20;99.90
12370;DHT22;6249;52.128;9.986;2023-05-29T00:30:16;15.10;99.90
12370;DHT22;6249;52.128;9.986;2023-05-29T00:40:17;14.90;99.90
12370;DHT22;6249;52.128;9.986;2023-05-29T00:50:20;14.70;99.90
12370;DHT22;6249;52.128;9.986;2023-05-29T01:00:22;14.50;99.90
12370;DHT22;6249;52.128;9.986;2023-05-29T01:10:26;14.40;99.90
12370;DHT22;6249;52.128;9.986;2023-05-29T01:20:33;14.20;99.90
12370;DHT22;6249;52.128;9.986;2023-05-29T01:30:36;14.00;99.90
12370;DHT22;6249;52.128;9.986;2023-05-29T01:40:40;13.80;99.90
12370;DHT22;6249;52.128;9.986;2023-05-29T01:50:41;13.70;99.90
12370;DHT22;6249;52.128;9.986;2023-05-29T02:00:44;13.50;99.90
12370;DHT22;6249;52.128;9.986;2023-05-29T02:10:45;13.20;99.90
12370;DHT22;6249;52.128;9.986;2023-05-29T02:20:48;13.00;99.90
12370;DHT22;6249;52.128;9.986;2023-05-29T02:30:48;12.70;99.90
12370;DHT22;6249;52.128;9.986;2023-05-29T02:40:54;12.60;99.90
12370;DHT22;6249;52.128;9.986;2023-05-29T02:50:55;12.50;99.90
12370;DHT22;6249;52.128;9.986;2023-05-29T03:00:58;12.40;99.90
12370;DHT22;6249;52.128;9.986;2023-05-29T03:10:58;12.20;99.90
12370;DHT22;6249;52.128;9.986;2023-05-29T03:21:01;12.20;99.90
12370;DHT22;6249;52.128;9.986;2023-05-29T03:31:05;12.10;99.90
12370;DHT22;6249;52.128;9.986;2023-05-29T03:41:05;12.00;99.90
12370;DHT22;6249;52.128;9.986;2023-05-29T03:51:06;11.90;99.90
12370;DHT22;6249;52.128;9.986;2023-05-29T04:01:09;11.90;99.90
12370;DHT22;6249;52.128;9.986;2023-05-29T04:11:10;11.70;99.90
12370;DHT22;6249;52.128;9.986;2023-05-29T04:21:13;11.70;99.90
12370;DHT22;6249;52.128;9.986;2023-05-29T04:31:16;11.70;99.90
12370;DHT22;6249;52.128;9.986;2023-05-29T04:41:20;11.80;99.90
12370;DHT22;6249;52.128;9.986;2023-05-29T04:51:23;11.90;99.90
12370;DHT22;6249;52.128;9.986;2023-05-29T05:01:25;11.90;99.90
12370;DHT22;6249;52.128;9.986;2023-05-29T05:11:25;12.10;99.90
12370;DHT22;6249;52.128;9.986;2023-05-29T05:21:28;12.30;99.90
12370;DHT22;6249;52.128;9.986;2023-05-29T05:31:32;12.80;99.90
12370;DHT22;6249;52.128;9.986;2023-05-29T05:41:32;13.00;99.90
12370;DHT22;6249;52.128;9.986;2023-05-29T05:51:33;13.10;99.90
12370;DHT22;6249;52.128;9.986;2023-05-29T06:01:33;13.20;99.90
12370;DHT22;6249;52.128;9.986;2023-05-29T06:11:34;13.40;99.90
12370;DHT22;6249;52.128;9.986;2023-05-29T06:21:35;13.60;99.90
12370;DHT22;6249;52.128;9.986;2023-05-29T06:31:37;13.80;99.90
12370;DHT22;6249;52.128;9.986;2023-05-29T06:41:38;14.30;99.90
12370;DHT22;6249;52.128;9.986;2023-05-29T06:51:38;14.50;99.90
12370;DHT22;6249;52.128;9.986;2023-05-29T07:01:41;14.80;99.90
12370;DHT22;6249;52.128;9.986;2023-05-29T07:11:42;14.90;99.90
12370;DHT22;6249;52.128;9.986;2023-05-29T07:21:45;15.40;99.90
12370;DHT22;6249;52.128;9.986;2023-05-29T07:31:46;15.70;99.90
12370;DHT22;6249;52.128;9.986;2023-05-29T07:41:46;16.30;99.90
12370;DHT22;6249;52.128;9.986;2023-05-29T07:51:49;16.50;99.90
12370;DHT22;6249;52.128;9.986;2023-05-29T08:01:52;16.70;99.90
12370;DHT22;6249;52.128;9.986;2023-05-29T08:11:52;16.90;99.90
12370;DHT22;6249;52.128;9.986;2023-05-29T08:21:53;17.30;99.90
12370;DHT22;6249;52.128;9.986;2023-05-29T08:31:56;17.60;99.90
12370;DHT22;6249;52.128;9.986;2023-05-29T08:52:32;18.80;99.90
12370;DHT22;6249;52.128;9.986;2023-05-29T09:02:35;19.70;99.90
12370;DHT22;6249;52.128;9.986;2023-05-29T09:12:37;20.40;99.90
12370;DHT22;6249;52.128;9.986;2023-05-29T09:22:42;20.90;99.70
12370;DHT22;6249;52.128;9.986;2023-05-29T09:32:53;21.10;96.80
12370;DHT22;6249;52.128;9.986;2023-05-29T09:42:54;21.90;96.60
12370;DHT22;6249;52.128;9.986;2023-05-29T09:52:57;22.50;94.60
12370;DHT22;6249;52.128;9.986;2023-05-29T10:02:58;22.90;93.40
12370;DHT22;6249;52.128;9.986;2023-05-29T10:13:00;23.80;92.00
12370;DHT22;6249;52.128;9.986;2023-05-29T10:23:04;24.40;91.30
12370;DHT22;6249;52.128;9.986;2023-05-29T10:44:37;25.40;88.50
12370;DHT22;6249;52.128;9.986;2023-05-29T10:54:21;26.10;84.60
12370;DHT22;6249;52.128;9.986;2023-05-29T11:14:22;27.80;77.50
12370;DHT22;6249;52.128;9.986;2023-05-29T11:24:29;28.30;70.00
12370;DHT22;6249;52.128;9.986;2023-05-29T11:34:32;29.60;65.70
12370;DHT22;6249;52.128;9.986;2023-05-29T11:44:35;29.80;62.20
12370;DHT22;6249;52.128;9.986;2023-05-29T11:54:36;29.60;59.50
12370;DHT22;6249;52.128;9.986;2023-05-29T12:04:36;30.20;57.70
12370;DHT22;6249;52.128;9.986;2023-05-29T12:14:37;32.00;54.60
12370;DHT22;6249;52.128;9.986;2023-05-29T12:24:38;32.10;47.90
12370;DHT22;6249;52.128;9.986;2023-05-29T12:34:38;32.60;50.10
12370;DHT22;6249;52.128;9.986;2023-05-29T12:44:41;31.10;48.10
12370;DHT22;6249;52.128;9.986;2023-05-29T12:54:42;32.10;46.70
12370;DHT22;6249;52.128;9.986;2023-05-29T13:04:45;33.30;46.80
12370;DHT22;6249;52.128;9.986;2023-05-29T13:14:48;35.00;44.00
12370;DHT22;6249;52.128;9.986;2023-05-29T13:24:51;35.00;42.50
12370;DHT22;6249;52.128;9.986;2023-05-29T13:34:52;33.10;41.30
12370;DHT22;6249;52.128;9.986;2023-05-29T13:44:52;31.90;44.50
12370;DHT22;6249;52.128;9.986;2023-05-29T13:54:53;31.90;43.90
12370;DHT22;6249;52.128;9.986;2023-05-29T14:04:54;33.60;41.80
12370;DHT22;6249;52.128;9.986;2023-05-29T14:14:57;35.70;36.60
12370;DHT22;6249;52.128;9.986;2023-05-29T14:25:01;34.20;38.80
12370;DHT22;6249;52.128;9.986;2023-05-29T14:35:01;35.60;37.60
12370;DHT22;6249;52.128;9.986;2023-05-29T14:45:05;35.60;35.10
12370;DHT22;6249;52.128;9.986;2023-05-29T14:55:08;35.70;32.70
12370;DHT22;6249;52.128;9.986;2023-05-29T15:05:11;35.90;32.50
12370;DHT22;6249;52.128;9.986;2023-05-29T15:15:11;36.70;33.00
12370;DHT22;6249;52.128;9.986;2023-05-29T15:25:12;35.80;30.90
12370;DHT22;6249;52.128;9.986;2023-05-29T15:35:14;35.50;29.50
12370;DHT22;6249;52.128;9.986;2023-05-29T15:45:17;35.10;30.30
12370;DHT22;6249;52.128;9.986;2023-05-29T15:55:18;33.20;30.90
12370;DHT22;6249;52.128;9.986;2023-05-29T16:05:21;31.30;30.20
12370;DHT22;6249;52.128;9.986;2023-05-29T16:15:24;29.30;32.70
12370;DHT22;6249;52.128;9.986;2023-05-29T16:25:25;28.40;31.00
12370;DHT22;6249;52.128;9.986;2023-05-29T16:35:29;27.60;31.20
12370;DHT22;6249;52.128;9.986;2023-05-29T16:45:29;26.70;33.00
12370;DHT22;6249;52.128;9.986;2023-05-29T16:55:32;26.30;34.10
12370;DHT22;6249;52.128;9.986;2023-05-29T17:05:35;26.00;35.30
12370;DHT22;6249;52.128;9.986;2023-05-29T17:15:38;25.40;34.80
12370;DHT22;6249;52.128;9.986;2023-05-29T17:25:40;24.90;36.70
12370;DHT22;6249;52.128;9.986;2023-05-29T17:35:41;24.50;37.10
12370;DHT22;6249;52.128;9.986;2023-05-29T17:45:42;24.10;40.40
12370;DHT22;6249;52.128;9.986;2023-05-29T17:55:46;24.00;41.10
12370;DHT22;6249;52.128;9.986;2023-05-29T18:05:49;23.60;40.90
12370;DHT22;6249;52.128;9.986;2023-05-29T18:15:49;23.40;41.40
12370;DHT22;6249;52.128;9.986;2023-05-29T18:25:50;22.90;42.40
12370;DHT22;6249;52.128;9.986;2023-05-29T18:35:51;22.50;44.70
12370;DHT22;6249;52.128;9.986;2023-05-29T18:45:56;22.10;46.20
12370;DHT22;6249;52.128;9.986;2023-05-29T18:55:57;21.40;48.80
12370;DHT22;6249;52.128;9.986;2023-05-29T19:05:58;21.10;50.40
12370;DHT22;6249;52.128;9.986;2023-05-29T19:16:01;20.60;54.50
12370;DHT22;6249;52.128;9.986;2023-05-29T19:26:04;20.20;58.90
12370;DHT22;6249;52.128;9.986;2023-05-29T19:36:05;19.70;62.70
12370;DHT22;6249;52.128;9.986;2023-05-29T19:46:06;19.40;67.30
12370;DHT22;6249;52.128;9.986;2023-05-29T19:56:07;19.10;70.30
12370;DHT22;6249;52.128;9.986;2023-05-29T20:06:08;18.90;73.00
12370;DHT22;6249;52.128;9.986;2023-05-29T20:16:10;18.50;76.80
12370;DHT22;6249;52.128;9.986;2023-05-29T20:26:13;18.20;80.40
12370;DHT22;6249;52.128;9.986;2023-05-29T20:36:16;17.80;82.80
12370;DHT22;6249;52.128;9.986;2023-05-29T20:46:19;17.50;85.30
12370;DHT22;6249;52.128;9.986;2023-05-29T20:56:22;17.30;85.00
12370;DHT22;6249;52.128;9.986;2023-05-29T21:06:23;17.00;85.10
12370;DHT22;6249;52.128;9.986;2023-05-29T21:16:23;17.00;85.80
12370;DHT22;6249;52.128;9.986;2023-05-29T21:26:26;16.60;87.60
12370;DHT22;6249;52.128;9.986;2023-05-29T21:36:29;16.40;90.00
12370;DHT22;6249;52.128;9.986;2023-05-29T21:46:29;16.10;91.00
12370;DHT22;6249;52.128;9.986;2023-05-29T21:56:32;15.80;91.90
12370;DHT22;6249;52.128;9.986;2023-05-29T22:06:33;15.50;93.20
12370;DHT22;6249;52.128;9.986;2023-05-29T22:16:36;15.10;94.40
12370;DHT22;6249;52.128;9.986;2023-05-29T22:26:39;14.90;92.70
12370;DHT22;6249;52.128;9.986;2023-05-29T22:36:40;14.70;92.00
12370;DHT22;6249;52.128;9.986;2023-05-29T22:46:41;14.40;92.90
12370;DHT22;6249;52.128;9.986;2023-05-29T22:56:43;14.10;94.30
12370;DHT22;6249;52.128;9.986;2023-05-29T23:06:49;13.90;95.80
12370;DHT22;6249;52.128;9.986;2023-05-29T23:16:53;13.50;96.40
12370;DHT22;6249;52.128;9.986;2023-05-29T23:26:56;13.10;97.90
12370;DHT22;6249;52.128;9.986;2023-05-29T23:36:59;12.90;99.50
12370;DHT22;6249;52.128;9.986;2023-05-29T23:47:00;12.70;99.90
12370;DHT22;6249;52.128;9.986;2023-05-29T23:57:04;12.50;99.90
